Time;durP1;ratioP1;P1;durP2;ratioP2;P2;SDS_P1;SDS_P2;PMS_P1;PMS_P2;Temp;Humidity;BMP_temperature;BMP_pressure;BME280_temperature;BME280_humidity;BME280_pressure;Samples;Min_cycle;Max_cycle;Signal;HPM_P1;HPM_P2
2021/10/13 00:00:10;;;;;;;1.50;1.40;;;;;18.90;101062.00;;;;2087766;28;20212;-53
2021/10/13 00:01:10;;;;;;;1.50;1.30;;;;;18.90;101069.00;;;;2092093;28;20711;-54
2021/10/13 00:02:10;;;;;;;1.30;1.20;;;;;18.90;101069.00;;;;2096113;28;20212;-54
2021/10/13 00:03:11;;;;;;;1.30;1.10;;;;;18.90;101075.00;;;;2096271;28;20212;-53
2021/10/13 00:04:11;;;;;;;1.47;1.37;;;;;18.90;101070.00;;;;2095946;28;20228;-54
2021/10/13 00:05:11;;;;;;;1.53;1.10;;;;;18.90;101072.00;;;;2096073;28;20223;-54
2021/10/13 00:06:12;;;;;;;1.20;1.10;;;;;18.90;101073.00;;;;2096275;28;20231;-54
2021/10/13 00:07:12;;;;;;;1.50;1.20;;;;;18.90;101067.00;;;;2095991;28;20204;-53
2021/10/13 00:08:12;;;;;;;1.87;1.50;;;;;18.90;101075.00;;;;2096178;28;20208;-54
2021/10/13 00:09:13;;;;;;;1.43;1.20;;;;;18.90;101067.00;;;;2095756;28;20299;-53
2021/10/13 00:10:13;;;;;;;1.30;1.20;;;;;18.90;101063.00;;;;2095594;28;20214;-53
2021/10/13 00:11:13;;;;;;;1.60;1.33;;;;;18.90;101072.00;;;;2095977;28;20557;-53
2021/10/13 00:12:14;;;;;;;2.00;1.60;;;;;18.90;101070.00;;;;2096289;28;20451;-53
2021/10/13 00:13:14;;;;;;;1.50;1.40;;;;;18.90;101065.00;;;;2090484;28;20296;-54
2021/10/13 00:14:15;;;;;;;1.63;1.53;;;;;18.90;101066.00;;;;2086923;28;20609;-56
2021/10/13 00:15:15;;;;;;;1.30;1.10;;;;;18.90;101065.00;;;;2086874;28;20220;-56
2021/10/13 00:16:16;;;;;;;2.20;1.30;;;;;18.90;101063.00;;;;2088265;28;20209;-54
2021/10/13 00:17:16;;;;;;;1.93;1.20;;;;;18.90;101059.00;;;;2088572;28;20450;-55
2021/10/13 00:18:17;;;;;;;1.40;1.13;;;;;18.90;101062.00;;;;2087107;28;20224;-54
2021/10/13 00:19:18;;;;;;;1.50;1.27;;;;;18.90;101069.00;;;;2094713;28;20261;-53
2021/10/13 00:20:18;;;;;;;2.17;1.30;;;;;18.90;101065.00;;;;2087460;28;20950;-53
2021/10/13 00:21:18;;;;;;;1.60;1.20;;;;;18.90;101067.00;;;;2087495;28;20312;-54
2021/10/13 00:22:19;;;;;;;1.20;1.10;;;;;18.90;101066.00;;;;2087715;28;20227;-54
2021/10/13 00:23:19;;;;;;;1.40;1.30;;;;;18.90;101068.00;;;;2091545;28;20232;-54
2021/10/13 00:24:20;;;;;;;1.50;1.10;;;;;18.90;101076.00;;;;2087586;28;20223;-54
2021/10/13 00:25:20;;;;;;;1.43;1.10;;;;;18.90;101065.00;;;;2087756;28;20216;-53
2021/10/13 00:26:20;;;;;;;1.30;1.13;;;;;18.90;101075.00;;;;2087421;28;20678;-54
2021/10/13 00:27:21;;;;;;;1.30;1.20;;;;;18.90;101068.00;;;;2087848;28;20585;-53
2021/10/13 00:28:21;;;;;;;1.70;1.20;;;;;18.90;101070.00;;;;2088239;28;20644;-54
2021/10/13 00:29:21;;;;;;;1.10;1.00;;;;;18.90;101081.00;;;;2087967;28;20231;-53
2021/10/13 00:30:22;;;;;;;1.93;1.33;;;;;18.90;101068.00;;;;2087601;28;20224;-53
2021/10/13 00:31:22;;;;;;;1.67;1.20;;;;;18.90;101067.00;;;;2088017;28;20217;-53
2021/10/13 00:32:23;;;;;;;1.50;1.20;;;;;18.90;101077.00;;;;2084217;28;20304;-53
2021/10/13 00:33:24;;;;;;;1.30;1.20;;;;;18.90;101069.00;;;;2087970;28;20205;-53
2021/10/13 00:34:24;;;;;;;1.43;1.17;;;;;18.90;101069.00;;;;2086239;28;20714;-53
2021/10/13 00:35:24;;;;;;;1.50;1.20;;;;;18.90;101066.00;;;;2087984;28;20483;-53
2021/10/13 00:36:25;;;;;;;1.57;1.13;;;;;18.90;101062.00;;;;2087086;28;20221;-53
2021/10/13 00:37:25;;;;;;;2.00;1.20;;;;;18.90;101064.00;;;;2088169;28;20295;-53
2021/10/13 00:38:26;;;;;;;1.40;1.30;;;;;18.90;101066.00;;;;2088150;28;20711;-54
2021/10/13 00:39:26;;;;;;;1.33;1.00;;;;;18.90;101063.00;;;;2087723;28;20515;-53
2021/10/13 00:40:29;;;;;;;1.40;1.20;;;;;18.90;101064.00;;;;2086874;28;20316;-53
2021/10/13 00:41:29;;;;;;;1.40;1.27;;;;;18.90;101066.00;;;;2087848;28;20751;-54
2021/10/13 00:42:30;;;;;;;1.53;1.40;;;;;18.90;101069.00;;;;2088094;28;20213;-54
2021/10/13 00:43:30;;;;;;;1.47;1.30;;;;;18.90;101062.00;;;;2088022;28;20224;-53
2021/10/13 00:44:30;;;;;;;1.30;1.20;;;;;18.90;101048.00;;;;2088889;28;20575;-55
2021/10/13 00:45:31;;;;;;;1.37;1.00;;;;;18.90;101059.00;;;;2092665;28;20217;-56
2021/10/13 00:46:31;;;;;;;1.70;1.30;;;;;18.90;101059.00;;;;2089138;28;20765;-55
2021/10/13 00:47:32;;;;;;;1.40;1.23;;;;;18.80;101061.00;;;;2090640;28;20207;-54
2021/10/13 00:48:32;;;;;;;1.40;1.30;;;;;18.90;101061.00;;;;2091778;28;20218;-54
2021/10/13 00:49:32;;;;;;;1.50;1.40;;;;;18.90;101057.00;;;;2094655;28;20209;-55
2021/10/13 00:50:33;;;;;;;1.17;1.07;;;;;18.90;101054.00;;;;2093037;28;20236;-55
2021/10/13 00:51:34;;;;;;;1.50;1.30;;;;;18.90;101064.00;;;;2090337;28;20216;-55
2021/10/13 00:52:37;;;;;;;1.35;1.25;;;;;18.90;101055.00;;;;2083503;28;20212;-55
2021/10/13 00:53:37;;;;;;;1.70;1.55;;;;;18.90;101060.00;;;;2087278;28;20240;-54
2021/10/13 00:54:38;;;;;;;1.63;1.20;;;;;18.70;101063.00;;;;2093682;28;20254;-55
2021/10/13 00:55:38;;;;;;;2.10;1.20;;;;;18.90;101067.00;;;;2091769;28;20216;-53
2021/10/13 00:56:39;;;;;;;1.80;1.40;;;;;18.90;101064.00;;;;2090198;28;20213;-54
2021/10/13 00:57:39;;;;;;;1.40;1.20;;;;;18.90;101068.00;;;;2095790;28;20238;-54
2021/10/13 00:58:39;;;;;;;1.37;1.13;;;;;18.80;101066.00;;;;2088916;28;20252;-54
2021/10/13 00:59:40;;;;;;;1.30;1.17;;;;;18.80;101065.00;;;;2087598;28;20295;-54
2021/10/13 01:00:42;;;;;;;1.33;1.10;;;;;18.90;101062.00;;;;2092421;28;20227;-54
2021/10/13 01:02:04;;;;;;;1.30;1.20;;;;;18.80;101071.00;;;;2094383;28;20208;-54
2021/10/13 01:03:16;;;;;;;1.25;1.10;;;;;18.90;101068.00;;;;2086209;28;20222;-53
2021/10/13 01:04:28;;;;;;;1.60;1.50;;;;;18.90;101063.00;;;;2092052;28;21290;-55
2021/10/13 01:06:01;;;;;;;2.22;1.38;;;;;18.90;101063.00;;;;2095660;28;20215;-53
2021/10/13 01:07:38;;;;;;;1.60;1.40;;;;;18.90;101063.00;;;;2091839;28;20208;-55
2021/10/13 01:08:45;;;;;;;1.33;1.23;;;;;18.90;101067.00;;;;2087049;28;20204;-54
2021/10/13 01:10:11;;;;;;;1.45;1.25;;;;;18.80;101065.00;;;;2086934;28;20212;-54
2021/10/13 01:11:45;;;;;;;1.27;1.15;;;;;18.90;101064.00;;;;2092577;28;20701;-54
2021/10/13 01:12:53;;;;;;;1.63;1.40;;;;;18.90;101061.00;;;;2095357;28;20689;-55
2021/10/13 01:14:16;;;;;;;1.88;1.48;;;;;18.90;101066.00;;;;2094794;28;20703;-54
2021/10/13 01:15:46;;;;;;;2.10;1.35;;;;;18.80;101067.00;;;;2094793;28;20224;-55
2021/10/13 01:16:53;;;;;;;2.05;1.58;;;;;18.80;101061.00;;;;2087651;28;20247;-56
2021/10/13 01:18:05;;;;;;;1.40;1.30;;;;;18.90;101077.00;;;;2085378;28;20698;-59
2021/10/13 01:19:27;;;;;;;1.42;1.33;;;;;18.80;101067.00;;;;2094829;28;20574;-55
2021/10/13 01:21:05;;;;;;;1.40;1.27;;;;;18.90;101071.00;;;;2074645;28;20213;-54
2021/10/13 01:22:17;;;;;;;2.00;1.40;;;;;18.90;101064.00;;;;2086280;28;20701;-55
2021/10/13 01:23:32;;;;;;;1.55;1.40;;;;;18.80;101065.00;;;;2093701;28;20231;-54
2021/10/13 01:24:57;;;;;;;2.80;1.60;;;;;18.90;101072.00;;;;2090741;28;20239;-55
2021/10/13 01:26:35;;;;;;;1.50;1.40;;;;;18.90;101063.00;;;;2086461;28;20220;-53
2021/10/13 01:27:49;;;;;;;1.95;1.50;;;;;18.90;101067.00;;;;2094107;28;20735;-54
2021/10/13 01:28:50;;;;;;;2.03;1.48;;;;;18.90;101064.00;;;;2095329;28;20219;-55
2021/10/13 01:29:52;;;;;;;1.63;1.40;;;;;18.80;101055.00;;;;2095104;28;20877;-55
2021/10/13 01:30:53;;;;;;;1.70;1.23;;;;;18.80;101060.00;;;;2086959;28;20217;-55
2021/10/13 01:32:03;;;;;;;1.48;1.27;;;;;18.80;101058.00;;;;2078749;28;20594;-55
2021/10/13 01:33:07;;;;;;;1.40;1.30;;;;;18.80;101050.00;;;;2091409;28;20212;-53
2021/10/13 01:34:14;;;;;;;1.77;1.58;;;;;18.80;101065.00;;;;2086751;28;20216;-53
2021/10/13 01:35:14;;;;;;;2.65;1.42;;;;;18.80;101055.00;;;;2080562;28;20304;-54
2021/10/13 01:36:15;;;;;;;1.73;1.43;;;;;18.80;101064.00;;;;2086270;28;20225;-53
2021/10/13 01:37:18;;;;;;;1.60;1.40;;;;;18.80;101056.00;;;;2094877;28;20240;-54
2021/10/13 01:38:21;;;;;;;1.48;1.38;;;;;18.80;101062.00;;;;2083465;28;20241;-54
2021/10/13 01:39:22;;;;;;;1.60;1.15;;;;;18.80;101066.00;;;;2090920;28;20311;-54
2021/10/13 01:40:25;;;;;;;2.10;1.60;;;;;18.80;101054.00;;;;2092105;28;20212;-55
2021/10/13 01:41:26;;;;;;;1.75;1.30;;;;;18.80;101055.00;;;;2095200;28;20232;-53
2021/10/13 01:42:27;;;;;;;1.47;1.30;;;;;18.80;101072.00;;;;2095151;28;20208;-55
2021/10/13 01:43:28;;;;;;;1.30;1.15;;;;;18.80;101068.00;;;;2087467;28;20682;-54
2021/10/13 01:44:30;;;;;;;2.00;1.33;;;;;18.80;101061.00;;;;2094577;28;20212;-58
2021/10/13 01:45:32;;;;;;;1.70;1.50;;;;;18.80;101061.00;;;;2089535;28;20213;-56
2021/10/13 01:46:33;;;;;;;1.80;1.25;;;;;18.80;101059.00;;;;2088331;28;20213;-55
2021/10/13 01:47:33;;;;;;;1.30;1.10;;;;;18.80;101063.00;;;;2090979;28;20208;-55
2021/10/13 01:48:34;;;;;;;1.77;1.30;;;;;18.80;101062.00;;;;2081801;28;20216;-54
2021/10/13 01:49:34;;;;;;;1.50;1.40;;;;;18.80;101064.00;;;;2094974;28;20701;-56
2021/10/13 01:50:34;;;;;;;1.73;1.60;;;;;18.80;101072.00;;;;2087122;28;20629;-55
2021/10/13 01:51:35;;;;;;;1.93;1.73;;;;;18.80;101081.00;;;;2078099;28;20737;-54
2021/10/13 01:52:35;;;;;;;1.80;1.47;;;;;18.80;101074.00;;;;2077558;28;20729;-55
2021/10/13 01:53:35;;;;;;;1.60;1.40;;;;;18.80;101088.00;;;;2079882;28;20201;-55
2021/10/13 01:54:36;;;;;;;1.83;1.43;;;;;18.80;101084.00;;;;2085271;28;20208;-54
2021/10/13 01:55:36;;;;;;;2.00;1.77;;;;;18.80;101082.00;;;;2077336;28;20217;-53
2021/10/13 01:56:38;;;;;;;1.87;1.67;;;;;18.80;101080.00;;;;2085600;28;20216;-55
2021/10/13 01:57:38;;;;;;;2.15;1.50;;;;;18.80;101076.00;;;;2093101;28;20764;-53
2021/10/13 01:58:38;;;;;;;1.47;1.37;;;;;18.80;101084.00;;;;2085964;28;20217;-53
2021/10/13 01:59:40;;;;;;;1.73;1.37;;;;;18.80;101096.00;;;;2078473;28;20214;-54
2021/10/13 02:00:43;;;;;;;2.22;1.55;;;;;18.80;101081.00;;;;2082285;28;20212;-54
2021/10/13 02:01:43;;;;;;;1.63;1.35;;;;;18.80;101083.00;;;;2089735;28;20205;-54
2021/10/13 02:02:44;;;;;;;1.90;1.50;;;;;18.80;101103.00;;;;2070775;28;20218;-54
2021/10/13 02:03:45;;;;;;;1.50;1.37;;;;;18.80;101086.00;;;;2070878;28;20214;-54
2021/10/13 02:04:45;;;;;;;1.50;1.27;;;;;18.80;101089.00;;;;2070570;28;20688;-55
2021/10/13 02:05:46;;;;;;;1.40;1.30;;;;;18.80;101083.00;;;;2084878;28;20451;-56
2021/10/13 02:06:48;;;;;;;1.73;1.30;;;;;18.80;101091.00;;;;2095089;28;20204;-53
2021/10/13 02:07:48;;;;;;;1.95;1.63;;;;;18.80;101086.00;;;;2078941;28;20205;-54
2021/10/13 02:08:50;;;;;;;1.77;1.40;;;;;18.80;101091.00;;;;2078539;28;20244;-53
2021/10/13 02:09:50;;;;;;;1.58;1.48;;;;;18.80;101087.00;;;;2084425;28;20220;-54
2021/10/13 02:10:51;;;;;;;1.60;1.50;;;;;18.80;101087.00;;;;2090640;28;20216;-54
2021/10/13 02:11:53;;;;;;;2.20;1.83;;;;;18.80;101089.00;;;;2095147;28;20216;-54
2021/10/13 02:12:55;;;;;;;1.88;1.45;;;;;18.80;101090.00;;;;2086755;28;20216;-55
2021/10/13 02:13:58;;;;;;;1.50;1.40;;;;;18.80;101092.00;;;;2079125;28;20271;-54
2021/10/13 02:14:58;;;;;;;1.65;1.25;;;;;18.80;101096.00;;;;2083404;28;20295;-54
2021/10/13 02:15:59;;;;;;;1.80;1.67;;;;;18.80;101091.00;;;;2077627;28;20285;-53
2021/10/13 02:16:59;;;;;;;1.40;1.30;;;;;18.80;101096.00;;;;2080939;28;20224;-54
2021/10/13 02:18:00;;;;;;;1.67;1.40;;;;;18.80;101092.00;;;;2089261;28;20212;-54
2021/10/13 02:19:01;;;;;;;1.53;1.27;;;;;18.80;101099.00;;;;2088175;28;20925;-53
2021/10/13 02:20:02;;;;;;;2.17;1.80;;;;;18.80;101099.00;;;;2078597;28;20220;-60
2021/10/13 02:21:03;;;;;;;1.93;1.73;;;;;18.80;101088.00;;;;2078798;28;20248;-54
2021/10/13 02:22:03;;;;;;;1.67;1.47;;;;;18.80;101094.00;;;;2086730;28;20236;-55
2021/10/13 02:23:04;;;;;;;1.30;1.20;;;;;18.80;101093.00;;;;2078605;28;20213;-55
2021/10/13 02:24:05;;;;;;;1.90;1.80;;;;;18.80;101094.00;;;;2083850;28;20204;-53
2021/10/13 02:25:05;;;;;;;1.55;1.40;;;;;18.80;101100.00;;;;2084253;28;20603;-55
2021/10/13 02:26:18;;;;;;;1.97;1.77;;;;;18.80;101114.00;;;;2090936;28;20267;-55
2021/10/13 02:27:19;;;;;;;1.60;1.50;;;;;18.80;101116.00;;;;2095188;28;20212;-54
2021/10/13 02:28:30;;;;;;;1.83;1.50;;;;;18.80;101123.00;;;;2095105;28;20863;-53
2021/10/13 02:29:30;;;;;;;2.35;1.70;;;;;18.80;101125.00;;;;2090855;28;20216;-55
2021/10/13 02:30:31;;;;;;;2.10;1.40;;;;;18.80;101124.00;;;;2087710;28;20213;-55
2021/10/13 02:31:32;;;;;;;1.90;1.70;;;;;18.80;101126.00;;;;2086697;28;20221;-54
2021/10/13 02:32:32;;;;;;;1.70;1.60;;;;;18.80;101128.00;;;;2092028;28;20231;-54
2021/10/13 02:33:33;;;;;;;2.50;1.70;;;;;18.80;101131.00;;;;2095743;28;20752;-54
2021/10/13 02:34:36;;;;;;;1.50;1.40;;;;;18.80;101126.00;;;;2094998;28;20723;-54
2021/10/13 02:35:37;;;;;;;2.22;1.85;;;;;18.80;101131.00;;;;2092312;28;20208;-56
2021/10/13 02:36:38;;;;;;;1.83;1.53;;;;;18.80;101135.00;;;;2086735;28;20270;-54
2021/10/13 02:37:39;;;;;;;1.42;1.33;;;;;18.80;101136.00;;;;2090278;28;20220;-54
2021/10/13 02:38:39;;;;;;;1.60;1.50;;;;;18.80;101132.00;;;;2094332;28;20223;-54
2021/10/13 02:39:39;;;;;;;2.40;1.73;;;;;18.80;101141.00;;;;2086711;28;20216;-56
2021/10/13 02:40:40;;;;;;;2.23;1.83;;;;;18.80;101138.00;;;;2091772;28;20224;-55
2021/10/13 02:41:41;;;;;;;1.42;1.33;;;;;18.80;101139.00;;;;2085799;28;20220;-54
2021/10/13 02:42:41;;;;;;;2.20;2.00;;;;;18.80;101143.00;;;;2088001;28;20308;-55
2021/10/13 02:43:42;;;;;;;1.90;1.70;;;;;18.80;101138.00;;;;2094677;28;20274;-54
2021/10/13 02:44:42;;;;;;;2.40;1.70;;;;;18.80;101139.00;;;;2087822;28;20394;-55
2021/10/13 02:45:45;;;;;;;1.90;1.70;;;;;18.80;101132.00;;;;2081551;28;20968;-56
2021/10/13 02:46:50;;;;;;;1.90;1.58;;;;;18.80;101134.00;;;;2082420;28;20207;-54
2021/10/13 02:47:52;;;;;;;1.65;1.55;;;;;18.80;101142.00;;;;2079017;28;20305;-55
2021/10/13 02:49:08;;;;;;;2.15;1.80;;;;;18.80;101133.00;;;;2086511;28;20796;-55
2021/10/13 02:50:13;;;;;;;1.88;1.75;;;;;18.80;101138.00;;;;2085523;28;20243;-54
2021/10/13 02:51:21;;;;;;;1.95;1.85;;;;;18.80;101125.00;;;;2084979;28;20227;-54
2021/10/13 02:53:03;;;;;;;1.95;1.85;;;;;18.80;101132.00;;;;2094568;28;20568;-55
2021/10/13 02:54:35;;;;;;;2.25;1.85;;;;;18.80;101135.00;;;;2077540;28;20296;-55
2021/10/13 02:56:08;;;;;;;1.70;1.60;;;;;18.80;101133.00;;;;2062616;28;20674;-54
2021/10/13 02:57:08;;;;;;;1.67;1.58;;;;;18.80;101126.00;;;;2068711;28;20299;-54
2021/10/13 02:58:21;;;;;;;2.23;1.80;;;;;18.80;101126.00;;;;2076117;28;20763;-52
2021/10/13 02:59:33;;;;;;;2.00;1.80;;;;;18.60;101123.00;;;;2087718;28;20689;-55
2021/10/13 03:00:34;;;;;;;2.38;1.70;;;;;18.80;101132.00;;;;2076295;28;20221;-55
2021/10/13 03:01:42;;;;;;;1.80;1.50;;;;;18.80;101133.00;;;;2068894;28;20232;-56
2021/10/13 03:03:06;;;;;;;2.22;2.03;;;;;18.80;101127.00;;;;2072476;28;20633;-54
2021/10/13 03:04:09;;;;;;;1.88;1.70;;;;;18.80;101129.00;;;;2088133;28;20252;-55
2021/10/13 03:05:09;;;;;;;1.90;1.70;;;;;18.80;101115.00;;;;2094376;28;20215;-54
2021/10/13 03:06:10;;;;;;;1.50;1.40;;;;;18.80;101128.00;;;;2087879;28;20268;-55
2021/10/13 03:07:13;;;;;;;1.83;1.73;;;;;18.80;101128.00;;;;2086008;28;20763;-54
2021/10/13 03:08:13;;;;;;;1.73;1.63;;;;;18.80;101117.00;;;;2086369;28;20351;-56
2021/10/13 03:09:14;;;;;;;1.77;1.67;;;;;18.80;101120.00;;;;2090303;28;20640;-56
2021/10/13 03:10:14;;;;;;;1.90;1.50;;;;;18.80;101115.00;;;;2084644;28;20292;-56
2021/10/13 03:11:16;;;;;;;1.83;1.73;;;;;18.80;101121.00;;;;2085967;28;20228;-54
2021/10/13 03:12:16;;;;;;;1.42;1.30;;;;;18.70;101119.00;;;;2077247;28;20267;-56
2021/10/13 03:13:17;;;;;;;1.90;1.80;;;;;18.70;101124.00;;;;2086590;28;20217;-55
2021/10/13 03:14:20;;;;;;;1.63;1.53;;;;;18.80;101123.00;;;;2077858;28;20276;-56
2021/10/13 03:15:20;;;;;;;1.60;1.50;;;;;18.80;101130.00;;;;2086242;28;20311;-54
2021/10/13 03:16:22;;;;;;;1.60;1.43;;;;;18.80;101119.00;;;;2070804;28;20575;-55
2021/10/13 03:17:23;;;;;;;1.65;1.50;;;;;18.80;101123.00;;;;2083360;28;20209;-56
2021/10/13 03:18:23;;;;;;;1.70;1.60;;;;;18.80;101127.00;;;;2092304;28;20208;-55
2021/10/13 03:19:25;;;;;;;1.90;1.70;;;;;18.80;101124.00;;;;2086110;28;20724;-56
2021/10/13 03:20:26;;;;;;;1.92;1.83;;;;;18.80;101126.00;;;;2086321;28;20283;-56
2021/10/13 03:21:27;;;;;;;2.40;1.90;;;;;18.80;101133.00;;;;2086773;28;20239;-54
2021/10/13 03:22:28;;;;;;;2.20;1.90;;;;;18.80;101136.00;;;;2085058;28;20247;-55
2021/10/13 03:23:28;;;;;;;1.70;1.50;;;;;18.80;101132.00;;;;2094038;28;20219;-57
2021/10/13 03:24:29;;;;;;;2.27;1.90;;;;;18.80;101143.00;;;;2086714;28;20213;-54
2021/10/13 03:25:30;;;;;;;2.00;1.80;;;;;18.80;101133.00;;;;2086831;28;20644;-56
2021/10/13 03:26:30;;;;;;;1.95;1.40;;;;;18.70;101143.00;;;;2087221;28;20448;-56
2021/10/13 03:27:32;;;;;;;2.40;1.87;;;;;18.80;101142.00;;;;2087166;28;20209;-54
2021/10/13 03:28:33;;;;;;;1.60;1.50;;;;;18.80;101143.00;;;;2087165;28;20215;-56
2021/10/13 03:29:39;;;;;;;2.10;1.90;;;;;18.80;101142.00;;;;2094453;28;20220;-57
2021/10/13 03:30:41;;;;;;;1.90;1.80;;;;;18.70;101141.00;;;;2092254;28;20738;-55
2021/10/13 03:31:42;;;;;;;1.85;1.42;;;;;18.70;101139.00;;;;2094927;28;20216;-56
2021/10/13 03:32:46;;;;;;;1.87;1.70;;;;;18.70;101141.00;;;;2096664;28;20208;-56
2021/10/13 03:33:50;;;;;;;1.67;1.48;;;;;18.80;101140.00;;;;2089660;28;20283;-56
2021/10/13 03:34:51;;;;;;;2.50;1.90;;;;;18.80;101145.00;;;;2088576;28;20226;-56
2021/10/13 03:35:52;;;;;;;2.50;1.90;;;;;18.70;101147.00;;;;2096197;28;20215;-56
2021/10/13 03:36:52;;;;;;;2.03;1.83;;;;;18.70;101146.00;;;;2088356;28;20588;-56
2021/10/13 03:37:53;;;;;;;2.33;1.70;;;;;18.70;101152.00;;;;2088504;28;20236;-57
2021/10/13 03:38:54;;;;;;;2.17;1.73;;;;;18.70;101148.00;;;;2087958;28;20213;-55
2021/10/13 03:39:56;;;;;;;1.73;1.60;;;;;18.70;101147.00;;;;2088516;28;20236;-56
2021/10/13 03:40:57;;;;;;;2.25;1.55;;;;;18.70;101146.00;;;;2088346;28;20607;-56
2021/10/13 03:42:01;;;;;;;1.65;1.55;;;;;18.70;101154.00;;;;2096461;28;20264;-55
2021/10/13 03:43:03;;;;;;;1.70;1.60;;;;;18.70;101152.00;;;;2079606;28;20213;-55
2021/10/13 03:44:03;;;;;;;2.00;1.80;;;;;18.80;101146.00;;;;2080171;28;20267;-56
2021/10/13 03:45:04;;;;;;;1.50;1.40;;;;;18.80;101149.00;;;;2088404;28;20267;-55
2021/10/13 03:46:04;;;;;;;1.83;1.70;;;;;18.70;101152.00;;;;2087737;28;20455;-56
2021/10/13 03:47:06;;;;;;;1.87;1.67;;;;;18.70;101147.00;;;;2088715;28;20215;-55
2021/10/13 03:48:06;;;;;;;2.15;1.95;;;;;18.70;101161.00;;;;2092299;28;20212;-56
2021/10/13 03:49:06;;;;;;;2.00;1.50;;;;;18.70;101146.00;;;;2088299;28;20274;-56
2021/10/13 03:50:08;;;;;;;1.87;1.77;;;;;18.70;101159.00;;;;2088542;28;20294;-55
2021/10/13 03:51:08;;;;;;;1.77;1.65;;;;;18.70;101150.00;;;;2079542;28;20218;-55
2021/10/13 03:52:09;;;;;;;1.73;1.50;;;;;18.70;101156.00;;;;2079514;28;20229;-55
2021/10/13 03:53:09;;;;;;;2.23;2.03;;;;;18.70;101156.00;;;;2088675;28;20221;-56
2021/10/13 03:54:09;;;;;;;1.60;1.40;;;;;18.70;101153.00;;;;2088462;28;20213;-54
2021/10/13 03:55:11;;;;;;;1.50;1.40;;;;;18.70;101156.00;;;;2088044;28;20689;-54
2021/10/13 03:56:12;;;;;;;2.15;1.95;;;;;18.70;101160.00;;;;2088286;28;20844;-56
2021/10/13 03:57:14;;;;;;;2.38;1.90;;;;;18.70;101154.00;;;;2092365;28;20294;-56
2021/10/13 03:58:14;;;;;;;2.17;2.00;;;;;18.70;101158.00;;;;2095970;28;20208;-55
2021/10/13 03:59:14;;;;;;;1.93;1.73;;;;;18.70;101164.00;;;;2091407;28;20217;-55
2021/10/13 04:00:19;;;;;;;2.00;1.80;;;;;18.80;101166.00;;;;2088459;28;20209;-55
2021/10/13 04:01:19;;;;;;;2.10;1.90;;;;;18.80;101164.00;;;;2087192;28;20958;-56
2021/10/13 04:02:20;;;;;;;2.53;2.20;;;;;18.70;101161.00;;;;2088569;28;20220;-55
2021/10/13 04:03:20;;;;;;;2.00;1.70;;;;;18.70;101160.00;;;;2088224;28;20597;-56
2021/10/13 04:04:21;;;;;;;2.17;2.00;;;;;18.70;101164.00;;;;2088356;28;20224;-54
2021/10/13 04:05:21;;;;;;;1.80;1.70;;;;;18.80;101168.00;;;;2088258;28;20291;-55
2021/10/13 04:06:22;;;;;;;1.87;1.70;;;;;18.70;101168.00;;;;2088307;28;20212;-56
2021/10/13 04:07:23;;;;;;;2.37;1.87;;;;;18.70;101158.00;;;;2088325;28;20448;-54
2021/10/13 04:08:23;;;;;;;2.17;1.80;;;;;18.70;101165.00;;;;2088172;28;20259;-57
2021/10/13 04:09:23;;;;;;;1.70;1.60;;;;;18.70;101167.00;;;;2087892;28;20299;-57
2021/10/13 04:10:24;;;;;;;1.73;1.53;;;;;18.70;101172.00;;;;2088150;28;20217;-56
2021/10/13 04:11:24;;;;;;;1.90;1.70;;;;;18.60;101172.00;;;;2088349;28;20331;-56
2021/10/13 04:12:24;;;;;;;2.10;1.90;;;;;18.70;101171.00;;;;2088266;28;20205;-54
2021/10/13 04:13:25;;;;;;;2.30;2.10;;;;;18.70;101173.00;;;;2088256;28;20266;-56
2021/10/13 04:14:25;;;;;;;2.10;1.80;;;;;18.70;101177.00;;;;2088253;28;20205;-56
2021/10/13 04:15:26;;;;;;;1.77;1.67;;;;;18.70;101171.00;;;;2089703;28;20278;-56
2021/10/13 04:16:26;;;;;;;1.80;1.70;;;;;18.70;101171.00;;;;2094875;28;20273;-53
2021/10/13 04:17:27;;;;;;;1.90;1.70;;;;;18.70;101175.00;;;;2088420;28;20464;-55
2021/10/13 04:18:27;;;;;;;2.10;1.90;;;;;18.70;101175.00;;;;2089962;28;20217;-56
2021/10/13 04:19:28;;;;;;;1.80;1.70;;;;;18.70;101175.00;;;;2087451;28;20228;-56
2021/10/13 04:20:29;;;;;;;1.87;1.67;;;;;18.70;101177.00;;;;2087471;28;20220;-56
2021/10/13 04:21:29;;;;;;;2.83;1.80;;;;;18.70;101175.00;;;;2089229;28;20560;-56
2021/10/13 04:22:29;;;;;;;1.70;1.60;;;;;18.70;101182.00;;;;2096428;28;20475;-56
2021/10/13 04:23:30;;;;;;;2.00;1.60;;;;;18.70;101170.00;;;;2095904;28;20896;-55
2021/10/13 04:24:30;;;;;;;1.97;1.83;;;;;18.70;101168.00;;;;2095141;28;20212;-55
2021/10/13 04:25:31;;;;;;;1.70;1.60;;;;;18.70;101179.00;;;;2093518;28;20230;-55
2021/10/13 04:26:31;;;;;;;4.20;2.00;;;;;18.70;101176.00;;;;2096220;28;20264;-54
2021/10/13 04:27:31;;;;;;;1.80;1.70;;;;;18.70;101175.00;;;;2096057;28;20212;-56
2021/10/13 04:28:34;;;;;;;1.83;1.70;;;;;18.70;101179.00;;;;2095993;28;20220;-56
2021/10/13 04:29:34;;;;;;;2.75;2.00;;;;;18.70;101175.00;;;;2095604;28;20232;-56
2021/10/13 04:30:37;;;;;;;2.07;1.70;;;;;18.70;101189.00;;;;2096014;28;20273;-57
2021/10/13 04:31:37;;;;;;;1.95;1.75;;;;;18.70;101176.00;;;;2095599;28;20695;-56
2021/10/13 04:32:38;;;;;;;2.00;1.90;;;;;18.70;101171.00;;;;2095815;28;20281;-56
2021/10/13 04:33:38;;;;;;;1.90;1.57;;;;;18.70;101172.00;;;;2093978;28;20673;-54
2021/10/13 04:34:39;;;;;;;2.00;1.80;;;;;18.70;101175.00;;;;2096359;28;20524;-56
2021/10/13 04:35:39;;;;;;;2.10;1.90;;;;;18.70;101182.00;;;;2096139;28;20260;-53
2021/10/13 04:36:40;;;;;;;1.70;1.60;;;;;18.70;101179.00;;;;2095581;28;20505;-55
2021/10/13 04:37:40;;;;;;;1.70;1.60;;;;;18.70;101178.00;;;;2094463;28;20257;-53
2021/10/13 04:38:40;;;;;;;2.27;1.60;;;;;18.80;101173.00;;;;2096269;28;20224;-55
2021/10/13 04:39:42;;;;;;;1.70;1.60;;;;;18.70;101178.00;;;;2096054;28;20223;-56
2021/10/13 04:40:42;;;;;;;1.90;1.70;;;;;18.70;101174.00;;;;2095331;28;20640;-54
2021/10/13 04:41:42;;;;;;;2.00;1.80;;;;;18.70;101176.00;;;;2095603;28;20216;-56
2021/10/13 04:42:43;;;;;;;1.73;1.63;;;;;18.70;101179.00;;;;2094480;28;20291;-58
2021/10/13 04:43:43;;;;;;;1.90;1.67;;;;;18.70;101174.00;;;;2095652;28;20208;-56
2021/10/13 04:44:43;;;;;;;2.20;1.70;;;;;18.70;101179.00;;;;2096352;28;20240;-56
2021/10/13 04:45:44;;;;;;;2.00;1.70;;;;;18.70;101180.00;;;;2092353;28;20242;-56
2021/10/13 04:46:44;;;;;;;1.93;1.70;;;;;18.70;101178.00;;;;2091736;28;20200;-56
2021/10/13 04:47:45;;;;;;;2.13;1.98;;;;;18.70;101176.00;;;;2091493;28;20683;-56
2021/10/13 04:48:46;;;;;;;1.93;1.83;;;;;18.70;101178.00;;;;2091767;28;20227;-55
2021/10/13 04:49:46;;;;;;;1.70;1.60;;;;;18.70;101178.00;;;;2087932;28;20220;-56
2021/10/13 04:50:47;;;;;;;1.43;1.33;;;;;18.70;101184.00;;;;2085598;28;20221;-56
2021/10/13 04:51:48;;;;;;;1.30;1.20;;;;;18.70;101178.00;;;;2087987;28;20221;-54
2021/10/13 04:52:48;;;;;;;2.07;1.73;;;;;18.70;101171.00;;;;2087922;28;20212;-56
2021/10/13 04:53:48;;;;;;;2.00;1.80;;;;;18.70;101177.00;;;;2088064;28;20223;-57
2021/10/13 04:54:49;;;;;;;2.10;1.67;;;;;18.70;101176.00;;;;2087413;28;20217;-56
2021/10/13 04:55:49;;;;;;;1.97;1.77;;;;;18.70;101158.00;;;;2087086;28;20702;-56
2021/10/13 04:56:49;;;;;;;1.93;1.73;;;;;18.70;101164.00;;;;2087916;28;20704;-56
2021/10/13 04:57:51;;;;;;;1.87;1.43;;;;;18.70;101170.00;;;;2088060;28;20267;-53
2021/10/13 04:58:51;;;;;;;2.20;2.00;;;;;18.70;101174.00;;;;2084000;28;20278;-56
2021/10/13 04:59:54;;;;;;;1.77;1.67;;;;;18.70;101168.00;;;;2087328;28;20217;-54
2021/10/13 05:00:55;;;;;;;1.70;1.60;;;;;18.70;101175.00;;;;2076856;28;20221;-59
2021/10/13 05:01:55;;;;;;;3.00;2.07;;;;;18.70;101167.00;;;;2079152;28;20426;-56
2021/10/13 05:02:56;;;;;;;2.33;1.83;;;;;18.70;101173.00;;;;2078542;28;20344;-60
2021/10/13 05:03:56;;;;;;;1.90;1.77;;;;;18.70;101170.00;;;;2077917;28;20702;-53
2021/10/13 05:04:56;;;;;;;2.10;1.90;;;;;18.70;101176.00;;;;2078724;28;20590;-54
2021/10/13 05:05:57;;;;;;;2.60;1.73;;;;;18.70;101175.00;;;;2078756;28;20214;-56
2021/10/13 05:06:57;;;;;;;1.70;1.60;;;;;18.70;101174.00;;;;2078034;28;20229;-56
2021/10/13 05:07:57;;;;;;;2.17;1.90;;;;;18.70;101173.00;;;;2079549;28;20210;-56
2021/10/13 05:08:58;;;;;;;2.20;1.90;;;;;18.70;101167.00;;;;2079428;28;20209;-56
2021/10/13 05:09:59;;;;;;;1.70;1.60;;;;;18.70;101165.00;;;;2079790;28;20260;-56
2021/10/13 05:10:59;;;;;;;2.00;1.80;;;;;18.70;101172.00;;;;2079621;28;20981;-55